Time;durP1;ratioP1;P1;durP2;ratioP2;P2;SDS_P1;SDS_P2;PMS_P1;PMS_P2;Temp;Humidity;BMP_temperature;BMP_pressure;BME280_temperature;BME280_humidity;BME280_pressure;Samples;Min_cycle;Max_cycle;Signal;HPM_P1;HPM_P2
2023/01/16 00:01:50;;;;;;;24.70;13.00;;;;;;;-1.27;86.80;99213.14;106746;1268;73794;-39
2023/01/16 00:04:18;;;;;;;25.10;13.60;;;;;;;-1.29;86.91;99217.94;106731;1263;59752;-39
2023/01/16 00:06:45;;;;;;;24.50;13.10;;;;;;;-1.33;86.89;99214.36;106730;1266;61474;-39
2023/01/16 00:09:12;;;;;;;19.10;11.00;;;;;;;-1.34;86.80;99217.51;106806;1262;74281;-39
2023/01/16 00:11:39;;;;;;;16.70;9.90;;;;;;;-1.33;86.47;99216.60;106846;1267;69368;-39
2023/01/16 00:14:07;;;;;;;16.80;10.00;;;;;;;-1.37;86.39;99229.27;106778;1262;74072;-39
2023/01/16 00:16:34;;;;;;;19.50;10.00;;;;;;;-1.42;86.55;99211.07;106849;1263;59644;-39
2023/01/16 00:19:01;;;;;;;16.30;10.00;;;;;;;-1.46;86.95;99201.80;106840;1264;60465;-39
2023/01/16 00:21:28;;;;;;;16.20;10.00;;;;;;;-1.42;86.92;99193.95;106840;1262;74114;-39
2023/01/16 00:23:57;;;;;;;15.10;8.90;;;;;;;-1.39;86.96;99187.73;106504;1263;1003066;-39
2023/01/16 00:26:25;;;;;;;13.40;8.30;;;;;;;-1.38;86.78;99182.36;106836;1263;73395;-39
2023/01/16 00:28:53;;;;;;;13.20;7.80;;;;;;;-1.41;86.75;99179.58;106911;1267;61018;-39
2023/01/16 00:31:23;;;;;;;10.40;6.60;;;;;;;-1.40;86.52;99181.42;106929;1263;60429;-39
2023/01/16 00:33:51;;;;;;;11.50;6.90;;;;;;;-1.35;86.11;99162.00;106907;1263;76318;-39
2023/01/16 00:36:18;;;;;;;11.10;6.80;;;;;;;-1.36;85.79;99161.23;106790;1266;69335;-39
2023/01/16 00:38:45;;;;;;;8.90;6.10;;;;;;;-1.40;85.79;99158.92;106719;1263;72869;-39
2023/01/16 00:41:12;;;;;;;11.50;6.40;;;;;;;-1.45;85.81;99159.91;106739;1262;60293;-39
2023/01/16 00:43:39;;;;;;;9.60;5.90;;;;;;;-1.44;85.84;99157.35;106803;1262;59997;-39
2023/01/16 00:46:06;;;;;;;11.60;6.50;;;;;;;-1.40;85.75;99163.14;106901;1263;73765;-39
2023/01/16 00:48:34;;;;;;;10.40;6.40;;;;;;;-1.40;85.93;99163.92;107114;1258;67941;-39
2023/01/16 00:51:01;;;;;;;10.30;6.30;;;;;;;-1.42;86.00;99155.34;107100;1262;74077;-38
2023/01/16 00:53:28;;;;;;;7.40;5.10;;;;;;;-1.38;85.88;99153.12;107094;1257;61437;-38
2023/01/16 00:55:55;;;;;;;7.80;5.50;;;;;;;-1.33;85.66;99146.98;107108;1257;60555;-39
2023/01/16 00:58:22;;;;;;;9.10;4.80;;;;;;;-1.33;85.32;99144.27;107087;1262;71466;-38
2023/01/16 01:00:49;;;;;;;8.50;5.20;;;;;;;-1.37;85.30;99141.88;107120;1257;67990;-38
2023/01/16 01:03:17;;;;;;;7.30;4.50;;;;;;;-1.39;85.43;99141.36;107085;1262;74028;-38
2023/01/16 01:05:44;;;;;;;6.20;4.50;;;;;;;-1.36;85.38;99143.19;107066;1262;62634;-39
2023/01/16 01:08:11;;;;;;;8.10;4.30;;;;;;;-1.27;85.44;99154.61;107079;1258;62391;-38
2023/01/16 01:10:38;;;;;;;5.70;3.80;;;;;;;-1.26;85.24;99158.97;107084;1262;72958;-39
2023/01/16 01:13:06;;;;;;;6.60;4.60;;;;;;;-1.27;85.31;99156.02;107119;1257;68456;-39
2023/01/16 01:15:33;;;;;;;6.00;4.00;;;;;;;-1.29;85.27;99154.12;107086;1259;74219;-39
2023/01/16 01:18:01;;;;;;;6.20;4.20;;;;;;;-1.26;85.20;99150.13;107095;1257;59688;-38
2023/01/16 01:20:28;;;;;;;6.90;3.70;;;;;;;-1.19;84.98;99144.94;107132;1257;60471;-38
2023/01/16 01:22:55;;;;;;;5.80;4.40;;;;;;;-1.18;85.00;99128.28;107135;1257;74364;-39
2023/01/16 01:25:22;;;;;;;6.70;4.40;;;;;;;-1.20;84.90;99132.80;107071;1262;69850;-39
2023/01/16 01:27:49;;;;;;;6.20;4.10;;;;;;;-1.25;85.21;99135.98;106344;1261;1003822;-39
2023/01/16 01:30:16;;;;;;;7.40;4.40;;;;;;;-1.25;85.31;99123.30;107035;1264;62053;-39
2023/01/16 01:32:43;;;;;;;6.70;4.60;;;;;;;-1.17;85.30;99122.56;107074;1262;60692;-38
2023/01/16 01:35:11;;;;;;;6.60;4.20;;;;;;;-1.15;85.26;99119.45;106334;1262;1002955;-38
2023/01/16 01:37:38;;;;;;;6.20;4.50;;;;;;;-1.14;85.36;99110.88;107207;1258;70312;-39
2023/01/16 01:40:08;;;;;;;5.90;4.10;;;;;;;-1.15;85.37;99113.86;107055;1258;73143;-39
2023/01/16 01:42:43;;;;;;;6.20;4.10;;;;;;;-1.10;85.21;99107.46;107065;1262;63858;-39
2023/01/16 01:45:16;;;;;;;5.30;3.80;;;;;;;-1.03;85.25;99104.80;107091;1262;62632;-39
2023/01/16 01:47:49;;;;;;;6.40;4.30;;;;;;;-1.02;85.00;99097.59;107132;1259;73444;-39
2023/01/16 01:50:20;;;;;;;6.10;4.20;;;;;;;-1.01;85.14;99091.09;107106;1257;68932;-39
2023/01/16 01:52:48;;;;;;;6.00;4.00;;;;;;;-1.00;85.17;99085.08;107079;1263;73972;-39
2023/01/16 01:55:15;;;;;;;6.20;3.60;;;;;;;-0.96;85.02;99088.89;107133;1261;59569;-39
2023/01/16 01:57:47;;;;;;;6.20;4.00;;;;;;;-0.91;84.85;99083.80;107021;1262;60247;-39
2023/01/16 02:00:16;;;;;;;6.50;4.30;;;;;;;-0.90;84.81;99087.98;107082;1262;74380;-39
2023/01/16 02:02:50;;;;;;;5.70;4.00;;;;;;;-0.94;84.89;99091.89;107024;1262;70460;-39
2023/01/16 02:05:21;;;;;;;6.30;3.60;;;;;;;-0.99;84.96;99087.28;107078;1260;71123;-39
2023/01/16 02:07:49;;;;;;;5.80;4.10;;;;;;;-0.96;85.09;99088.03;107051;1262;61274;-39
2023/01/16 02:10:27;;;;;;;6.30;4.10;;;;;;;-0.92;84.96;99085.57;107102;1262;60419;-39
2023/01/16 02:12:56;;;;;;;7.20;4.00;;;;;;;-0.91;85.11;99080.51;107078;1262;74453;-39
2023/01/16 06:29:13;;;;;;;5.00;3.90;;;;;;;0.19;90.09;98977.91;105065;1280;614331;-35
2023/01/16 06:31:42;;;;;;;4.60;3.60;;;;;;;0.69;87.74;98973.10;106689;1264;173559;-36
2023/01/16 06:34:11;;;;;;;5.10;3.80;;;;;;;0.67;88.10;98974.33;106854;1264;60308;-36
2023/01/16 06:36:38;;;;;;;5.10;3.60;;;;;;;0.73;88.14;98975.08;106835;1264;73442;-36
2023/01/16 06:39:06;;;;;;;5.50;3.80;;;;;;;0.84;87.99;98971.66;106856;1264;70193;-36
2023/01/16 06:41:33;;;;;;;5.60;4.50;;;;;;;0.89;87.30;98971.66;106886;1264;73804;-36
2023/01/16 06:44:01;;;;;;;5.30;4.10;;;;;;;0.91;86.56;98973.95;106888;1263;60674;-36
2023/01/16 06:46:29;;;;;;;6.40;4.20;;;;;;;0.90;86.00;98969.88;106926;1264;60354;-37
2023/01/16 06:48:56;;;;;;;5.90;4.30;;;;;;;0.87;85.18;98962.11;106851;1264;73152;-37
2023/01/16 06:51:23;;;;;;;5.10;3.90;;;;;;;0.88;84.82;98960.26;106846;1266;69911;-37
2023/01/16 06:53:50;;;;;;;5.00;3.70;;;;;;;0.97;84.20;98956.19;106831;1266;72939;-37
2023/01/16 06:56:17;;;;;;;6.20;4.60;;;;;;;0.98;83.79;98954.81;106876;1264;60572;-37
2023/01/16 06:58:44;;;;;;;7.50;4.80;;;;;;;0.98;83.83;98950.61;106834;1264;61252;-37
2023/01/16 07:01:11;;;;;;;6.20;4.50;;;;;;;0.98;83.52;98949.60;106878;1262;73547;-37
2023/01/16 07:03:38;;;;;;;6.00;4.40;;;;;;;0.97;83.32;98953.78;106858;1264;69813;-37
2023/01/16 07:06:05;;;;;;;6.50;4.50;;;;;;;1.02;83.10;98944.95;104633;1264;1003057;-36
2023/01/16 07:08:33;;;;;;;6.20;4.90;;;;;;;1.10;82.77;98943.27;106835;1266;59624;-37
2023/01/16 07:11:00;;;;;;;7.60;4.70;;;;;;;1.14;82.49;98945.45;107477;1258;59722;-37
2023/01/16 07:13:28;;;;;;;9.30;5.40;;;;;;;1.16;82.35;98947.36;107428;1260;74217;-37
2023/01/16 07:24:11;;;;;;;8.30;5.60;;;;;;;1.22;81.35;98952.43;107501;1260;61477;-37
2023/01/16 07:26:40;;;;;;;8.80;5.40;;;;;;;1.26;81.03;98951.69;107443;1260;74070;-38
2023/01/16 07:29:07;;;;;;;8.80;5.90;;;;;;;1.28;81.02;98953.34;107387;1257;69928;-38
2023/01/16 07:31:34;;;;;;;8.90;5.70;;;;;;;1.29;80.81;98945.05;107302;1257;73787;-37
2023/01/16 07:34:01;;;;;;;8.30;5.90;;;;;;;1.28;80.71;98943.13;107267;1257;59601;-37
2023/01/16 07:36:28;;;;;;;9.40;5.60;;;;;;;1.28;80.73;98946.02;107258;1257;61202;-37
2023/01/16 07:38:55;;;;;;;8.70;5.20;;;;;;;1.33;80.28;98949.48;107257;1258;74239;-37
2023/01/16 07:41:22;;;;;;;8.50;5.60;;;;;;;1.38;80.02;98954.15;107365;1257;69802;-37
2023/01/16 07:43:52;;;;;;;6.20;3.50;;;;;;;1.39;80.00;98950.08;107390;1257;73507;-37
2023/01/16 07:46:20;;;;;;;7.60;5.40;;;;;;;1.37;80.15;98951.19;107377;1258;60805;-37
2023/01/16 07:48:47;;;;;;;8.20;5.40;;;;;;;1.36;80.15;98950.61;107337;1257;61733;-37
2023/01/16 07:51:14;;;;;;;6.80;4.90;;;;;;;1.34;80.01;98946.48;107367;1258;74244;-37
2023/01/16 07:53:41;;;;;;;6.60;4.40;;;;;;;1.37;79.92;98948.74;107371;1258;69753;-37
2023/01/16 12:37:35;;;;;;;18.70;13.70;;;;;;;2.54;83.78;98759.26;104962;1282;613885;-39
2023/01/16 14:26:19;;;;;;;25.90;18.70;;;;;;;2.04;89.31;98686.30;104945;1282;612254;-37
2023/01/16 14:28:51;;;;;;;25.20;17.20;;;;;;;2.50;87.70;98688.91;106328;1266;202793;-39
2023/01/16 14:31:23;;;;;;;24.70;16.80;;;;;;;2.44;88.36;98682.88;106548;1266;59936;-39
2023/01/16 14:33:53;;;;;;;21.20;15.70;;;;;;;2.47;88.50;98680.98;106575;1266;73329;-38
2023/01/16 14:36:21;;;;;;;27.70;16.90;;;;;;;2.54;88.54;98677.35;106661;1272;69792;-39
2023/01/16 14:38:48;;;;;;;24.20;16.40;;;;;;;2.59;88.23;98679.59;106638;1266;74501;-39
2023/01/16 14:56:12;;;;;;;25.20;16.20;;;;;;;2.47;87.50;98672.80;106570;1266;61304;-38
2023/01/16 14:58:40;;;;;;;24.60;15.80;;;;;;;2.45;87.26;98660.13;106485;1266;60161;-39
2023/01/16 15:02:18;;;;;;;25.30;16.50;;;;;;;2.54;87.05;98671.63;106507;1266;73505;-39
2023/01/16 15:04:00;;;;;;;27.70;17.10;;;;;;;2.52;86.96;98669.94;106553;1266;69912;-39
2023/01/16 15:06:37;;;;;;;24.30;15.80;;;;;;;2.50;87.05;98672.30;106633;1265;75077;-39
2023/01/16 15:09:04;;;;;;;24.40;16.10;;;;;;;2.57;86.87;98675.87;106625;1266;61322;-39
2023/01/16 15:11:33;;;;;;;25.80;16.60;;;;;;;2.63;86.38;98683.89;106626;1263;59458;-38
2023/01/16 15:14:27;;;;;;;27.80;16.70;;;;;;;2.64;86.33;98674.66;106680;1263;73738;-39
2023/01/16 15:23:20;;;;;;;24.60;16.30;;;;;;;2.62;86.17;98674.92;106702;1266;59672;-38
2023/01/16 15:25:54;;;;;;;26.20;17.20;;;;;;;2.66;86.30;98682.16;106669;1263;59608;-38
2023/01/16 15:28:21;;;;;;;26.20;17.00;;;;;;;2.68;86.33;98677.13;106656;1263;73807;-38
2023/01/16 15:30:54;;;;;;;25.50;17.20;;;;;;;2.69;86.30;98674.91;106642;1263;67431;-38
2023/01/16 15:33:46;;;;;;;24.30;16.00;;;;;;;2.74;85.84;98673.66;106640;1263;74993;-38
2023/01/16 15:36:31;;;;;;;23.20;16.00;;;;;;;2.81;85.76;98671.34;106775;1266;61754;-39
2023/01/16 15:39:00;;;;;;;24.50;16.50;;;;;;;2.81;85.66;98668.98;106666;1263;61657;-39
2023/01/16 15:47:14;;;;;;;27.20;16.50;;;;;;;2.70;85.53;98660.77;106804;1266;73896;-39
2023/01/16 15:49:54;;;;;;;23.60;16.20;;;;;;;2.72;85.65;98657.46;106737;1269;59666;-39
2023/01/16 15:52:27;;;;;;;25.80;17.00;;;;;;;2.71;85.83;98650.94;106780;1263;59689;-39
2023/01/16 15:54:55;;;;;;;26.40;15.90;;;;;;;2.71;85.84;98648.17;106776;1263;73539;-39
2023/01/16 15:57:22;;;;;;;24.00;15.80;;;;;;;2.74;85.76;98648.37;106819;1263;70989;-39
2023/01/16 15:59:54;;;;;;;25.30;16.50;;;;;;;2.82;85.68;98643.73;106823;1269;74414;-39
2023/01/16 16:02:27;;;;;;;25.90;17.60;;;;;;;2.85;85.50;98643.52;106752;1263;61684;-39
2023/01/16 16:04:57;;;;;;;31.00;18.60;;;;;;;2.82;85.63;98639.66;106635;1263;59244;-39
2023/01/16 20:30:47;;;;;;;15.10;11.00;;;;;;;3.37;98.99;98438.19;104858;1283;612670;-38
2023/01/16 20:33:15;;;;;;;17.70;11.20;;;;;;;3.84;97.90;98441.52;106442;1267;214910;-38
2023/01/16 20:35:42;;;;;;;16.50;11.80;;;;;;;3.82;98.07;98443.45;106735;1264;60944;-39
2023/01/16 20:38:10;;;;;;;16.00;10.90;;;;;;;3.79;98.29;98447.86;106598;1264;71279;-38
2023/01/16 20:40:37;;;;;;;20.80;11.40;;;;;;;3.80;97.79;98445.16;106640;1270;70245;-38
2023/01/16 20:45:50;;;;;;;15.90;11.20;;;;;;;3.87;97.07;98437.77;106631;1270;60840;-38
2023/01/16 20:48:19;;;;;;;14.30;10.70;;;;;;;3.82;96.73;98442.02;106610;1264;60609;-40
2023/01/16 20:50:47;;;;;;;15.70;11.40;;;;;;;3.80;96.36;98438.42;106741;1264;74192;-40
2023/01/16 20:53:16;;;;;;;16.10;11.20;;;;;;;3.83;95.88;98437.34;106816;1264;70223;-40
2023/01/16 20:55:45;;;;;;;16.50;11.30;;;;;;;3.86;95.42;98432.00;106790;1264;74060;-40
2023/01/16 20:58:12;;;;;;;17.70;12.20;;;;;;;3.85;95.06;98430.13;106794;1270;60920;-40
2023/01/16 21:00:39;;;;;;;17.10;11.50;;;;;;;3.81;94.78;98430.72;106785;1270;59681;-40
2023/01/16 21:03:06;;;;;;;15.50;10.00;;;;;;;3.80;94.08;98431.04;106738;1264;74119;-40
2023/01/16 21:05:35;;;;;;;15.80;10.80;;;;;;;3.81;93.64;98428.71;106761;1264;69757;-40
2023/01/16 21:08:04;;;;;;;18.70;11.50;;;;;;;3.82;93.37;98427.29;106754;1269;74425;-40
2023/01/16 21:10:31;;;;;;;17.30;11.80;;;;;;;3.79;93.45;98422.38;106740;1264;61416;-40
2023/01/16 21:15:46;;;;;;;14.20;10.90;;;;;;;3.75;92.83;98426.25;106779;1264;73702;-40
2023/01/16 21:23:45;;;;;;;20.10;12.10;;;;;;;3.72;92.52;98419.23;106764;1264;62334;-40
2023/01/16 21:26:13;;;;;;;19.50;10.70;;;;;;;3.74;92.52;98421.83;106738;1269;60208;-41
2023/01/16 21:28:40;;;;;;;18.80;11.60;;;;;;;3.79;92.27;98415.33;107081;1257;74482;-40
2023/01/16 21:31:08;;;;;;;16.00;10.90;;;;;;;3.81;92.06;98415.08;106975;1262;70139;-40
2023/01/16 21:33:36;;;;;;;20.90;12.80;;;;;;;3.77;91.98;98410.08;107023;1260;71481;-40
2023/01/16 21:36:10;;;;;;;15.40;11.80;;;;;;;3.73;92.18;98412.06;107011;1258;62594;-40
2023/01/16 21:38:38;;;;;;;15.60;10.70;;;;;;;3.73;92.09;98407.39;107021;1257;61904;-40
2023/01/16 21:41:13;;;;;;;17.30;12.00;;;;;;;3.78;91.76;98406.81;107079;1257;74859;-40
2023/01/16 21:46:27;;;;;;;20.20;11.70;;;;;;;3.77;91.65;98398.10;107105;1258;73691;-40
2023/01/16 21:48:55;;;;;;;18.70;10.90;;;;;;;3.75;91.57;98389.63;107123;1257;63253;-40
2023/01/16 21:51:22;;;;;;;17.60;10.60;;;;;;;3.79;91.60;98392.67;107090;1262;61748;-40
2023/01/16 21:53:49;;;;;;;16.50;11.90;;;;;;;3.79;91.39;98389.67;107068;1257;72313;-40
2023/01/16 21:56:17;;;;;;;22.40;12.70;;;;;;;3.78;91.47;98380.52;107042;1257;69396;-40
2023/01/16 21:58:45;;;;;;;18.00;11.30;;;;;;;3.74;91.45;98386.84;107057;1258;74131;-40
2023/01/16 22:01:12;;;;;;;15.00;10.70;;;;;;;3.76;91.51;98375.42;107052;1257;62102;-40
2023/01/16 22:03:39;;;;;;;19.30;10.70;;;;;;;3.81;91.15;98376.63;107043;1257;61938;-40
2023/01/16 22:06:07;;;;;;;19.50;11.70;;;;;;;3.82;91.27;98382.34;107083;1257;74409;-40
2023/01/16 22:08:39;;;;;;;18.10;11.30;;;;;;;3.81;91.06;98373.80;107116;1260;70624;-41
2023/01/16 22:19:34;;;;;;;16.60;10.70;;;;;;;3.83;90.81;98368.80;107069;1257;73873;-40
2023/01/16 22:22:01;;;;;;;17.30;10.90;;;;;;;3.83;90.68;98368.11;107062;1257;68963;-40
2023/01/16 22:24:28;;;;;;;17.50;10.90;;;;;;;3.87;90.49;98362.95;107058;1259;71735;-40
2023/01/16 22:26:55;;;;;;;15.70;10.50;;;;;;;3.88;90.26;98360.60;107000;1262;61542;-40
2023/01/16 22:29:22;;;;;;;17.50;11.00;;;;;;;3.87;90.44;98363.24;107005;1257;61749;-40
2023/01/16 22:31:50;;;;;;;16.50;10.60;;;;;;;3.84;90.29;98358.24;107031;1257;74848;-40
2023/01/16 22:34:17;;;;;;;15.90;10.30;;;;;;;3.84;90.19;98357.66;107020;1260;70620;-40
2023/01/16 22:36:47;;;;;;;18.00;10.00;;;;;;;3.90;90.04;98352.45;106998;1260;72750;-39
2023/01/16 22:39:14;;;;;;;17.30;11.00;;;;;;;3.91;90.00;98352.41;107075;1258;60264;-39
2023/01/16 22:41:45;;;;;;;17.40;9.90;;;;;;;3.90;90.06;98352.29;107024;1261;61483;-39
2023/01/16 22:46:58;;;;;;;17.90;9.40;;;;;;;3.94;89.50;98351.65;107083;1257;69340;-39
2023/01/16 22:49:25;;;;;;;13.60;9.60;;;;;;;3.93;89.56;98339.75;107074;1258;74818;-40
2023/01/16 22:51:52;;;;;;;18.50;10.00;;;;;;;3.91;89.71;98340.85;107056;1262;62491;-39
2023/01/16 22:54:20;;;;;;;14.70;9.20;;;;;;;3.89;89.71;98332.65;107092;1257;60632;-40
2023/01/16 22:56:47;;;;;;;13.90;9.70;;;;;;;3.91;89.72;98327.22;107041;1257;75400;-40
2023/01/16 22:59:15;;;;;;;15.50;9.40;;;;;;;3.94;89.49;98325.67;107016;1257;68151;-40
2023/01/16 23:01:42;;;;;;;18.60;9.90;;;;;;;3.91;89.56;98319.79;107035;1260;73349;-39
2023/01/16 23:04:09;;;;;;;14.00;9.40;;;;;;;3.87;89.75;98318.59;107036;1258;61361;-40
2023/01/16 23:06:36;;;;;;;12.30;8.20;;;;;;;3.89;89.81;98321.85;107074;1257;59621;-40
2023/01/16 23:09:04;;;;;;;16.10;9.90;;;;;;;3.95;89.37;98310.00;107077;1258;75097;-40
2023/01/16 23:11:32;;;;;;;15.30;9.40;;;;;;;3.96;89.27;98309.24;107118;1257;71280;-39
2023/01/16 23:14:03;;;;;;;14.10;9.30;;;;;;;3.96;89.51;98300.15;107123;1258;74005;-40
2023/01/16 23:16:33;;;;;;;13.70;9.00;;;;;;;3.93;89.30;98296.08;107033;1258;62563;-39
2023/01/16 23:19:01;;;;;;;13.30;8.60;;;;;;;3.97;89.30;98291.58;107077;1257;59682;-40
2023/01/16 23:21:28;;;;;;;12.70;8.60;;;;;;;4.02;89.13;98288.03;107052;1257;73553;-40
2023/01/16 23:23:58;;;;;;;14.10;9.50;;;;;;;4.02;89.09;98278.91;107064;1257;70072;-39
2023/01/16 23:26:26;;;;;;;15.60;9.30;;;;;;;3.97;89.09;98263.85;107135;1259;74580;-39
2023/01/16 23:28:57;;;;;;;12.00;9.00;;;;;;;4.01;89.00;98268.40;107033;1260;62301;-39
2023/01/16 23:31:26;;;;;;;14.30;8.80;;;;;;;4.05;88.91;98268.34;107210;1257;61658;-39
2023/01/16 23:33:53;;;;;;;14.30;9.60;;;;;;;4.05;88.84;98273.42;107110;1257;73425;-38
2023/01/16 23:36:22;;;;;;;13.50;9.20;;;;;;;4.01;88.93;98262.66;107055;1257;70370;-39
2023/01/16 23:38:49;;;;;;;14.70;9.70;;;;;;;4.02;88.95;98265.06;107041;1258;74401;-39
2023/01/16 23:41:18;;;;;;;12.60;9.30;;;;;;;4.05;88.75;98269.28;107066;1260;63304;-39
2023/01/16 23:46:39;;;;;;;14.10;10.00;;;;;;;4.09;88.72;98263.19;106269;1259;1002891;-40
2023/01/16 23:49:07;;;;;;;14.50;9.00;;;;;;;4.06;88.50;98259.89;107081;1260;71227;-39
2023/01/16 23:51:36;;;;;;;13.70;9.30;;;;;;;4.06;88.41;98257.35;107026;1257;74293;-39
2023/01/16 23:54:03;;;;;;;13.60;9.80;;;;;;;4.09;88.32;98255.22;107066;1257;61576;-40
2023/01/16 23:56:31;;;;;;;16.30;9.80;;;;;;;4.11;88.39;98253.10;107053;1257;61686;-40
